createdAt,value
2022-11-29T00:00:27.675Z,0.00
2022-11-29T00:01:27.956Z,0.00
2022-11-29T00:02:28.304Z,0.00
2022-11-29T00:03:28.639Z,0.00
2022-11-29T00:04:28.787Z,0.00
2022-11-29T00:05:29.100Z,0.00
2022-11-29T00:06:29.368Z,0.00
2022-11-29T00:07:29.679Z,0.00
2022-11-29T00:08:29.908Z,0.00
2022-11-29T00:09:30.172Z,0.00
2022-11-29T00:10:30.477Z,0.00
2022-11-29T00:11:30.719Z,0.00
2022-11-29T00:12:30.957Z,0.00
2022-11-29T00:13:31.209Z,0.00
2022-11-29T00:14:31.477Z,0.00
2022-11-29T00:15:31.712Z,0.00
2022-11-29T00:16:32.040Z,0.00
2022-11-29T00:17:32.354Z,0.00
2022-11-29T00:18:32.602Z,0.00
2022-11-29T00:19:32.891Z,0.00
2022-11-29T00:20:33.131Z,0.00
2022-11-29T00:21:33.399Z,0.00
2022-11-29T00:22:33.685Z,0.00
2022-11-29T00:23:33.960Z,0.00
2022-11-29T00:24:34.198Z,0.00
2022-11-29T00:25:34.444Z,0.00
2022-11-29T00:26:34.705Z,0.00
2022-11-29T00:27:34.991Z,0.00
2022-11-29T00:28:35.251Z,0.00
2022-11-29T00:29:35.519Z,0.00
2022-11-29T00:30:35.821Z,0.00
2022-11-29T00:31:36.095Z,0.00
2022-11-29T00:32:36.368Z,0.00
2022-11-29T00:33:36.645Z,0.00
2022-11-29T00:34:36.883Z,0.00
2022-11-29T00:35:37.164Z,0.00
2022-11-29T00:36:37.424Z,0.00
2022-11-29T00:37:37.693Z,0.00
2022-11-29T00:38:37.919Z,0.00
2022-11-29T00:39:38.215Z,0.00
2022-11-29T00:40:38.575Z,0.00
2022-11-29T00:41:38.864Z,0.00
2022-11-29T00:42:39.170Z,0.00
2022-11-29T00:43:39.468Z,0.00
2022-11-29T00:44:39.787Z,0.00
2022-11-29T00:45:40.098Z,0.00
2022-11-29T00:46:40.356Z,0.00
2022-11-29T00:47:40.625Z,0.00
2022-11-29T00:48:40.903Z,0.00
2022-11-29T00:49:41.221Z,0.00
2022-11-29T00:50:41.547Z,0.00
2022-11-29T00:51:41.797Z,0.00
2022-11-29T00:52:42.056Z,0.00
2022-11-29T00:53:42.305Z,0.00
2022-11-29T00:54:42.914Z,0.00
2022-11-29T00:55:42.893Z,0.00
2022-11-29T00:56:43.144Z,0.00
2022-11-29T00:57:43.429Z,0.00
2022-11-29T00:58:43.698Z,0.00
2022-11-29T00:59:44.081Z,0.00
2022-11-29T01:00:44.406Z,0.00
2022-11-29T01:01:44.645Z,0.00
2022-11-29T01:02:44.977Z,0.00
2022-11-29T01:03:45.210Z,0.00
2022-11-29T01:04:45.740Z,0.00
2022-11-29T01:05:45.703Z,0.00
2022-11-29T01:06:45.938Z,0.00
2022-11-29T01:07:46.241Z,0.00
2022-11-29T01:08:46.520Z,0.00
2022-11-29T01:09:46.815Z,0.00
2022-11-29T01:10:47.079Z,0.00
2022-11-29T01:11:47.329Z,0.00
2022-11-29T01:12:47.587Z,0.00
2022-11-29T01:13:48.031Z,0.00
2022-11-29T01:14:48.167Z,0.00
2022-11-29T01:15:48.468Z,0.00
2022-11-29T01:16:48.790Z,0.00
2022-11-29T01:17:49.088Z,0.00
2022-11-29T01:18:49.358Z,0.00
2022-11-29T01:19:51.079Z,0.00
2022-11-29T01:20:49.915Z,0.00
2022-11-29T01:21:50.302Z,0.00
2022-11-29T01:22:50.628Z,0.00
2022-11-29T01:23:50.832Z,0.00
2022-11-29T01:24:51.150Z,0.00
2022-11-29T01:25:51.403Z,0.00
2022-11-29T01:26:51.640Z,0.00
2022-11-29T01:27:51.881Z,0.00
2022-11-29T01:28:52.154Z,0.00
2022-11-29T01:29:52.417Z,0.00
2022-11-29T01:30:52.709Z,0.00
2022-11-29T01:31:52.956Z,0.00
2022-11-29T01:32:53.228Z,0.00
2022-11-29T01:33:53.498Z,0.00
2022-11-29T01:34:53.773Z,0.00
2022-11-29T01:35:54.034Z,0.00
2022-11-29T01:36:54.345Z,0.00
2022-11-29T01:37:54.573Z,0.00
2022-11-29T01:38:54.864Z,0.00
2022-11-29T01:39:55.135Z,0.00
2022-11-29T01:40:55.365Z,0.00
2022-11-29T01:41:55.730Z,0.00
2022-11-29T01:42:55.962Z,0.00
2022-11-29T01:43:56.264Z,0.00
2022-11-29T01:44:56.620Z,0.00
2022-11-29T01:45:56.886Z,0.00
2022-11-29T01:46:57.178Z,0.00
2022-11-29T01:47:57.575Z,0.00
2022-11-29T01:48:57.728Z,0.00
2022-11-29T01:49:58.118Z,0.00
2022-11-29T01:50:58.321Z,0.00
2022-11-29T01:51:58.536Z,0.00
2022-11-29T01:52:58.823Z,0.00
2022-11-29T01:53:59.136Z,0.00
2022-11-29T01:54:59.464Z,0.00
2022-11-29T01:55:59.684Z,0.00
2022-11-29T01:57:00.049Z,0.00
2022-11-29T01:58:00.166Z,0.00
2022-11-29T01:59:00.464Z,0.00
2022-11-29T02:00:00.807Z,0.00
2022-11-29T02:01:01.146Z,0.00
2022-11-29T02:02:01.474Z,0.00
2022-11-29T02:03:01.701Z,0.00
2022-11-29T02:04:01.995Z,0.00
2022-11-29T02:05:02.373Z,0.00
2022-11-29T02:06:02.612Z,0.00
2022-11-29T02:07:02.842Z,0.00
2022-11-29T02:08:03.163Z,0.00
2022-11-29T02:09:03.419Z,0.00
2022-11-29T02:10:03.770Z,0.00
2022-11-29T02:11:03.971Z,0.00
2022-11-29T02:12:04.280Z,0.00
2022-11-29T02:13:04.631Z,0.00
2022-11-29T02:14:04.816Z,0.00
2022-11-29T02:15:05.130Z,0.00
2022-11-29T02:16:05.503Z,0.00
2022-11-29T02:17:05.785Z,0.00
2022-11-29T02:18:06.091Z,0.00
2022-11-29T02:19:06.365Z,0.00
2022-11-29T02:20:06.689Z,0.00
2022-11-29T02:21:06.967Z,0.00
2022-11-29T02:22:07.231Z,0.00
2022-11-29T02:23:07.509Z,0.00
2022-11-29T02:24:07.758Z,0.00
2022-11-29T02:25:08.021Z,0.00
2022-11-29T02:26:08.262Z,0.00
2022-11-29T02:27:08.512Z,0.00
2022-11-29T02:28:08.771Z,0.00
2022-11-29T02:29:09.010Z,0.00
2022-11-29T02:30:09.291Z,0.00
2022-11-29T02:31:09.594Z,0.00
2022-11-29T02:32:09.840Z,0.00
2022-11-29T02:33:10.081Z,0.00
2022-11-29T02:34:10.302Z,0.00
2022-11-29T02:35:10.673Z,0.00
2022-11-29T02:36:10.928Z,0.00
2022-11-29T02:37:11.744Z,0.00
2022-11-29T02:38:11.519Z,0.00
2022-11-29T02:39:11.787Z,0.00
2022-11-29T02:40:12.095Z,0.00
2022-11-29T02:41:12.363Z,0.00
2022-11-29T02:42:12.653Z,0.00
2022-11-29T02:43:12.881Z,0.00
2022-11-29T02:44:13.166Z,0.00
2022-11-29T02:45:13.457Z,0.00
2022-11-29T02:46:13.795Z,0.00
2022-11-29T02:47:13.946Z,0.00
2022-11-29T02:48:14.218Z,0.00
2022-11-29T02:49:14.505Z,0.00
2022-11-29T02:50:14.807Z,0.00
2022-11-29T02:51:15.103Z,0.00
2022-11-29T02:52:15.363Z,0.00
2022-11-29T02:53:15.628Z,0.00
2022-11-29T02:54:15.885Z,0.00
2022-11-29T02:55:16.185Z,0.00
2022-11-29T02:56:16.444Z,0.00
2022-11-29T02:57:16.742Z,0.00
2022-11-29T02:58:16.987Z,0.00
2022-11-29T02:59:17.227Z,0.00
2022-11-29T03:00:17.519Z,0.00
2022-11-29T03:01:17.810Z,0.00
2022-11-29T03:02:18.136Z,0.00
2022-11-29T03:03:18.410Z,0.00
2022-11-29T03:04:18.675Z,0.00
2022-11-29T03:05:18.937Z,0.00
2022-11-29T03:06:19.176Z,0.00
2022-11-29T03:07:19.465Z,0.00
2022-11-29T03:08:19.728Z,0.00
2022-11-29T03:09:19.998Z,0.00
2022-11-29T03:10:20.285Z,0.00
2022-11-29T03:11:20.552Z,0.00
2022-11-29T03:12:20.830Z,0.00
2022-11-29T03:13:21.054Z,0.00
2022-11-29T03:14:21.306Z,0.00
2022-11-29T03:15:21.600Z,0.00
2022-11-29T03:16:21.842Z,0.00
2022-11-29T03:17:22.169Z,0.00
2022-11-29T03:18:22.466Z,0.00
2022-11-29T03:19:22.785Z,0.00
2022-11-29T03:20:23.042Z,0.00
2022-11-29T03:21:23.312Z,0.00
2022-11-29T03:22:23.647Z,0.00
2022-11-29T03:23:23.919Z,0.00
2022-11-29T03:24:24.152Z,0.00
2022-11-29T03:25:24.416Z,0.00
2022-11-29T03:26:24.648Z,0.00
2022-11-29T03:27:24.889Z,0.00
2022-11-29T03:28:25.131Z,0.00
2022-11-29T03:29:25.409Z,0.00
2022-11-29T03:30:25.683Z,0.00
2022-11-29T03:31:25.973Z,0.00
2022-11-29T03:32:26.234Z,0.00
2022-11-29T03:33:26.472Z,0.00
2022-11-29T03:34:26.715Z,0.00
2022-11-29T03:35:26.983Z,0.00
2022-11-29T03:36:27.260Z,0.00
2022-11-29T03:37:27.492Z,0.00
2022-11-29T03:38:27.764Z,0.00
2022-11-29T03:39:28.024Z,0.00
2022-11-29T03:40:28.314Z,0.00
2022-11-29T03:41:28.577Z,0.00
2022-11-29T03:42:28.896Z,0.00
2022-11-29T03:43:29.154Z,0.00
2022-11-29T03:44:29.425Z,0.00
2022-11-29T03:45:29.664Z,0.00
2022-11-29T03:46:29.989Z,0.00
2022-11-29T03:47:30.218Z,0.00
2022-11-29T03:48:30.458Z,0.00
2022-11-29T03:49:30.695Z,0.00
2022-11-29T03:50:30.954Z,0.00
2022-11-29T03:51:31.205Z,0.00
2022-11-29T03:52:31.476Z,0.00
2022-11-29T03:53:31.704Z,0.00
2022-11-29T03:54:31.975Z,0.00
2022-11-29T03:55:32.256Z,0.00
2022-11-29T03:56:32.486Z,0.00
2022-11-29T03:57:32.779Z,0.00
2022-11-29T03:58:33.035Z,0.00
2022-11-29T03:59:33.295Z,0.00
2022-11-29T04:00:33.575Z,0.00
2022-11-29T04:01:33.929Z,0.00
2022-11-29T04:02:34.176Z,0.00
2022-11-29T04:03:34.430Z,0.00
2022-11-29T04:04:34.715Z,0.00
2022-11-29T04:05:35.034Z,0.00
2022-11-29T04:06:35.349Z,0.00
2022-11-29T04:07:35.719Z,0.00
2022-11-29T04:08:35.989Z,0.00
2022-11-29T04:09:36.250Z,0.00
2022-11-29T04:10:36.529Z,0.00
2022-11-29T04:11:36.851Z,0.00
2022-11-29T04:12:37.136Z,0.00
2022-11-29T04:13:45.876Z,0.00
2022-11-29T04:14:37.656Z,0.00
2022-11-29T04:15:37.943Z,0.00
2022-11-29T04:16:38.149Z,0.00
2022-11-29T04:17:38.368Z,0.00
2022-11-29T04:18:38.727Z,0.00
2022-11-29T04:19:38.958Z,0.00
2022-11-29T04:20:43.008Z,0.00
2022-11-29T04:21:40.435Z,0.00
2022-11-29T04:22:39.710Z,0.00
2022-11-29T04:23:40.202Z,0.00
2022-11-29T04:24:40.385Z,0.00
2022-11-29T04:25:40.642Z,0.00
2022-11-29T04:26:40.883Z,0.00
2022-11-29T04:27:41.124Z,0.00
2022-11-29T04:28:41.364Z,0.00
2022-11-29T04:29:41.589Z,0.00
2022-11-29T04:30:41.852Z,0.00
2022-11-29T04:31:42.082Z,0.00
2022-11-29T04:32:42.331Z,0.00
2022-11-29T04:33:42.550Z,0.00
2022-11-29T04:34:43.295Z,0.00
2022-11-29T04:35:43.211Z,0.00
2022-11-29T04:36:43.448Z,0.00
2022-11-29T04:37:43.691Z,0.00
2022-11-29T04:38:43.924Z,0.00
2022-11-29T04:39:44.176Z,0.00
2022-11-29T04:40:44.433Z,0.00
2022-11-29T04:41:44.651Z,0.00
2022-11-29T04:42:44.999Z,0.00
2022-11-29T04:43:45.242Z,0.00
2022-11-29T04:44:45.687Z,0.00
2022-11-29T04:45:45.771Z,0.00
2022-11-29T04:46:46.053Z,0.00
2022-11-29T04:47:46.268Z,0.00
2022-11-29T04:48:46.596Z,0.00
2022-11-29T04:49:46.862Z,0.00
2022-11-29T04:50:47.131Z,0.00
2022-11-29T04:51:47.342Z,0.00
2022-11-29T04:52:47.691Z,0.00
2022-11-29T04:53:47.973Z,0.00
2022-11-29T04:54:48.274Z,0.00
2022-11-29T04:55:48.575Z,0.00
2022-11-29T04:56:48.874Z,0.00
2022-11-29T04:57:49.122Z,0.00
2022-11-29T04:58:49.417Z,0.00
2022-11-29T04:59:49.804Z,0.00
2022-11-29T05:00:49.973Z,0.00
2022-11-29T05:01:50.299Z,0.00
2022-11-29T05:02:50.610Z,0.00
2022-11-29T05:03:56.736Z,0.00
2022-11-29T05:04:52.093Z,0.00
2022-11-29T05:05:51.565Z,0.00
2022-11-29T05:06:51.617Z,0.00
2022-11-29T05:07:51.931Z,0.00
2022-11-29T05:08:52.226Z,0.00
2022-11-29T05:09:52.507Z,0.00
2022-11-29T05:10:52.755Z,0.00
2022-11-29T05:11:53.117Z,0.00
2022-11-29T05:12:53.427Z,0.00
2022-11-29T05:13:53.531Z,0.00
2022-11-29T05:14:53.767Z,0.00
2022-11-29T05:15:54.208Z,0.00
2022-11-29T05:16:54.471Z,0.00
2022-11-29T05:17:54.676Z,0.00
2022-11-29T05:18:54.798Z,0.00
2022-11-29T05:19:55.041Z,0.00
2022-11-29T05:20:55.409Z,0.00
2022-11-29T05:21:55.688Z,0.00
2022-11-29T05:22:55.917Z,0.00
2022-11-29T05:23:56.179Z,0.00
2022-11-29T05:24:56.429Z,0.00
2022-11-29T05:25:56.739Z,0.00
2022-11-29T05:26:56.968Z,0.00
2022-11-29T05:27:57.230Z,0.00
2022-11-29T05:28:57.461Z,0.00
2022-11-29T05:29:57.729Z,0.00
2022-11-29T05:30:57.988Z,0.00
2022-11-29T05:31:58.262Z,0.00
2022-11-29T05:32:58.509Z,0.00
2022-11-29T05:33:58.757Z,0.00
2022-11-29T05:34:59.013Z,0.00
2022-11-29T05:35:59.271Z,0.00
2022-11-29T05:36:59.545Z,0.00
2022-11-29T05:37:59.780Z,0.00
2022-11-29T05:39:00.031Z,0.00
2022-11-29T05:40:00.291Z,0.00
2022-11-29T05:41:00.531Z,0.00
2022-11-29T05:42:00.763Z,0.00
2022-11-29T05:43:00.993Z,0.00
2022-11-29T05:44:01.228Z,0.00
2022-11-29T05:45:01.583Z,0.00
2022-11-29T05:46:01.894Z,0.00
2022-11-29T05:47:02.140Z,0.00
2022-11-29T05:48:02.356Z,0.00
2022-11-29T05:49:02.592Z,0.00
2022-11-29T05:50:02.822Z,20.00
2022-11-29T05:51:03.081Z,20.00
2022-11-29T05:52:03.304Z,20.00
2022-11-29T05:53:03.543Z,20.00
2022-11-29T05:54:03.848Z,16.00
2022-11-29T05:55:04.084Z,16.00
2022-11-29T05:56:04.333Z,16.00
2022-11-29T05:57:04.581Z,16.00
2022-11-29T05:58:04.812Z,16.00
2022-11-29T05:59:05.054Z,16.00
2022-11-29T06:00:05.304Z,16.00
2022-11-29T06:01:05.575Z,16.00
2022-11-29T06:02:05.846Z,16.00
2022-11-29T06:03:06.166Z,16.00
2022-11-29T06:04:11.701Z,16.00
2022-11-29T06:05:07.686Z,0.00
2022-11-29T06:06:06.985Z,0.00
2022-11-29T06:07:07.214Z,0.00
2022-11-29T06:08:07.424Z,0.00
2022-11-29T06:09:07.779Z,0.00
2022-11-29T06:10:08.016Z,0.00
2022-11-29T06:11:08.267Z,0.00
2022-11-29T06:12:08.493Z,0.00
2022-11-29T06:13:08.759Z,0.00
2022-11-29T06:14:08.966Z,4.00
2022-11-29T06:15:09.314Z,0.00
2022-11-29T06:16:09.711Z,0.00
2022-11-29T06:17:09.910Z,4.00
2022-11-29T06:18:10.267Z,0.00
2022-11-29T06:19:10.497Z,4.00
2022-11-29T06:20:10.749Z,4.00
2022-11-29T06:21:11.007Z,4.00
2022-11-29T06:22:11.257Z,0.00
2022-11-29T06:23:11.477Z,4.00
2022-11-29T06:24:11.818Z,4.00
2022-11-29T06:25:12.158Z,4.00
2022-11-29T06:26:12.558Z,8.00
2022-11-29T06:27:12.789Z,4.00
2022-11-29T06:28:13.035Z,8.00
2022-11-29T06:29:13.367Z,8.00
2022-11-29T06:30:13.599Z,12.00
2022-11-29T06:31:13.885Z,12.00
2022-11-29T06:32:14.120Z,16.00
2022-11-29T06:33:14.388Z,12.00
2022-11-29T06:34:14.600Z,16.00
2022-11-29T06:35:14.980Z,20.00
2022-11-29T06:36:15.220Z,20.00
2022-11-29T06:37:15.480Z,24.00
2022-11-29T06:38:15.702Z,48.00
2022-11-29T06:39:15.966Z,32.00
2022-11-29T06:40:16.198Z,32.00
2022-11-29T06:41:16.454Z,36.00
2022-11-29T06:42:16.706Z,44.00
2022-11-29T06:43:16.965Z,44.00
2022-11-29T06:44:17.214Z,52.00
2022-11-29T06:45:17.454Z,60.00
2022-11-29T06:46:17.766Z,72.00
2022-11-29T06:47:18.019Z,76.00
2022-11-29T06:48:18.242Z,84.00
2022-11-29T06:49:18.484Z,96.00
2022-11-29T06:50:18.723Z,104.00
2022-11-29T06:51:18.986Z,108.00
2022-11-29T06:52:19.225Z,108.00
2022-11-29T06:53:19.495Z,124.00
2022-11-29T06:54:19.746Z,128.00
2022-11-29T06:55:20.003Z,128.00
2022-11-29T06:56:20.267Z,124.00
2022-11-29T06:57:20.514Z,136.00
2022-11-29T06:58:20.764Z,136.00
2022-11-29T06:59:21.018Z,148.00
2022-11-29T07:00:21.278Z,152.00
2022-11-29T07:01:21.569Z,152.00
2022-11-29T07:02:21.884Z,160.00
2022-11-29T07:03:22.108Z,180.00
2022-11-29T07:04:22.386Z,200.00
2022-11-29T07:05:22.656Z,212.00
2022-11-29T07:06:22.926Z,216.00
2022-11-29T07:07:23.207Z,220.00
2022-11-29T07:08:23.517Z,228.00
2022-11-29T07:09:23.912Z,228.00
2022-11-29T07:10:24.019Z,232.00
2022-11-29T07:11:24.289Z,244.00
2022-11-29T07:12:24.567Z,248.00
2022-11-29T07:13:24.790Z,260.00
2022-11-29T07:14:25.053Z,276.00
2022-11-29T07:15:25.292Z,292.00
2022-11-29T07:16:25.647Z,304.00
2022-11-29T07:17:25.890Z,316.00
2022-11-29T07:18:26.177Z,320.00
2022-11-29T07:19:26.441Z,332.00
2022-11-29T07:20:26.709Z,348.00
2022-11-29T07:21:26.984Z,360.00
2022-11-29T07:22:27.252Z,372.00
2022-11-29T07:23:27.511Z,388.00
2022-11-29T07:24:27.782Z,392.00
2022-11-29T07:25:28.029Z,396.00
2022-11-29T07:26:28.333Z,420.00
2022-11-29T07:27:28.581Z,436.00
2022-11-29T07:28:28.831Z,448.00
2022-11-29T07:29:29.096Z,468.00
2022-11-29T07:30:29.353Z,468.00
2022-11-29T07:31:29.703Z,468.00
2022-11-29T07:32:29.940Z,472.00
2022-11-29T07:33:30.185Z,476.00
2022-11-29T07:34:30.433Z,496.00
2022-11-29T07:35:30.684Z,508.00
2022-11-29T07:36:30.972Z,516.00
2022-11-29T07:37:31.323Z,524.00
2022-11-29T07:38:31.573Z,544.00
2022-11-29T07:39:31.848Z,552.00
2022-11-29T07:40:37.410Z,572.00
2022-11-29T07:41:33.384Z,596.00
2022-11-29T07:42:32.688Z,620.00
2022-11-29T07:43:32.929Z,624.00
2022-11-29T07:44:33.194Z,636.00
2022-11-29T07:45:33.448Z,656.00
2022-11-29T07:46:33.741Z,672.00
2022-11-29T07:47:35.912Z,680.00
2022-11-29T07:48:34.216Z,684.00
2022-11-29T07:49:34.454Z,688.00
2022-11-29T07:50:34.697Z,708.00
2022-11-29T07:51:34.974Z,724.00
2022-11-29T07:52:35.245Z,728.00
2022-11-29T07:53:35.484Z,728.00
2022-11-29T07:54:35.749Z,752.00
2022-11-29T07:55:36.819Z,764.00
2022-11-29T07:56:36.269Z,784.00
2022-11-29T07:57:36.505Z,804.00
2022-11-29T07:58:36.795Z,828.00
2022-11-29T07:59:37.038Z,856.00
2022-11-29T08:00:37.512Z,880.00
2022-11-29T08:01:37.663Z,904.00
2022-11-29T08:02:37.992Z,932.00
2022-11-29T08:03:38.268Z,964.00
2022-11-29T08:04:38.557Z,996.00
2022-11-29T08:05:38.809Z,1028.00
2022-11-29T08:06:39.104Z,1060.00
2022-11-29T08:07:39.405Z,1080.00
2022-11-29T08:08:43.925Z,1096.00
2022-11-29T08:09:40.150Z,1100.00
2022-11-29T08:10:40.319Z,1120.00
2022-11-29T08:11:40.914Z,1124.00
2022-11-29T08:12:41.024Z,1136.00
2022-11-29T08:13:41.915Z,1136.00
2022-11-29T08:14:42.299Z,1144.00
2022-11-29T08:15:42.124Z,1168.00
2022-11-29T08:16:42.081Z,1180.00
2022-11-29T08:17:42.344Z,1184.00
2022-11-29T08:18:42.558Z,1196.00
2022-11-29T08:19:43.173Z,1212.00
2022-11-29T08:20:43.123Z,1216.00
2022-11-29T08:21:44.181Z,1252.00
2022-11-29T08:22:43.662Z,1264.00
2022-11-29T08:23:44.703Z,1292.00
2022-11-29T08:24:44.466Z,1308.00
2022-11-29T08:25:44.464Z,1336.00
2022-11-29T08:26:44.772Z,1348.00
2022-11-29T08:27:45.067Z,1384.00
2022-11-29T08:28:45.380Z,1432.00
2022-11-29T08:29:45.644Z,1468.00
2022-11-29T08:30:45.947Z,1508.00
2022-11-29T08:31:46.307Z,1528.00
2022-11-29T08:32:51.213Z,1536.00
2022-11-29T08:33:47.715Z,1584.00
2022-11-29T08:34:48.163Z,1628.00
2022-11-29T08:35:47.346Z,1656.00
2022-11-29T08:36:47.626Z,1672.00
2022-11-29T08:37:47.921Z,1692.00
2022-11-29T08:38:48.176Z,1700.00
2022-11-29T08:39:48.446Z,1696.00
2022-11-29T08:40:48.728Z,1720.00
2022-11-29T08:41:49.007Z,1732.00
2022-11-29T08:42:49.271Z,1732.00
2022-11-29T08:43:49.563Z,1772.00
2022-11-29T08:44:49.828Z,1816.00
2022-11-29T08:45:50.100Z,1860.00
2022-11-29T08:46:50.425Z,1908.00
2022-11-29T08:47:50.672Z,1948.00
2022-11-29T08:48:50.962Z,2012.00
2022-11-29T08:49:51.210Z,2056.00
2022-11-29T08:50:51.487Z,2088.00
2022-11-29T08:51:51.759Z,2088.00
2022-11-29T08:52:52.028Z,2060.00
2022-11-29T08:53:52.311Z,2124.00
2022-11-29T08:54:52.591Z,2148.00
2022-11-29T08:55:52.853Z,2148.00
2022-11-29T08:57:31.452Z,2172.00
2022-11-29T08:57:54.372Z,2188.00
2022-11-29T08:58:53.704Z,2228.00
2022-11-29T08:59:54.060Z,2244.00
2022-11-29T09:00:54.267Z,2288.00
2022-11-29T09:01:54.587Z,2340.00
2022-11-29T09:02:55.645Z,2400.00
2022-11-29T09:03:55.156Z,2468.00
2022-11-29T09:04:55.438Z,2392.00
2022-11-29T09:05:55.743Z,2496.00
2022-11-29T09:06:56.024Z,2600.00
2022-11-29T09:07:56.318Z,2536.00
2022-11-29T09:08:56.606Z,2536.00
2022-11-29T09:09:56.928Z,2648.00
2022-11-29T09:10:57.177Z,2648.00
2022-11-29T09:11:57.472Z,2688.00
2022-11-29T09:12:57.718Z,2820.00
2022-11-29T09:13:57.979Z,2792.00
2022-11-29T09:14:58.250Z,2836.00
2022-11-29T09:15:58.506Z,2876.00
2022-11-29T09:16:58.822Z,2880.00
2022-11-29T09:17:59.066Z,2896.00
2022-11-29T09:18:59.331Z,2964.00
2022-11-29T09:19:59.615Z,3012.00
2022-11-29T09:20:59.874Z,3004.00
2022-11-29T09:22:00.147Z,3024.00
2022-11-29T09:23:00.425Z,3112.00
2022-11-29T09:24:00.677Z,3104.00
2022-11-29T09:25:00.959Z,3188.00
2022-11-29T09:26:01.218Z,3272.00
2022-11-29T09:27:01.497Z,3280.00
2022-11-29T09:28:01.770Z,3252.00
2022-11-29T09:29:02.037Z,3312.00
2022-11-29T09:30:02.293Z,3324.00
2022-11-29T09:31:02.558Z,3256.00
2022-11-29T09:32:02.898Z,3216.00
2022-11-29T09:33:03.157Z,3300.00
2022-11-29T09:34:03.491Z,3316.00
2022-11-29T09:35:03.776Z,3304.00
2022-11-29T09:36:04.034Z,3488.00
2022-11-29T09:37:04.339Z,3520.00
2022-11-29T09:38:04.673Z,3548.00
2022-11-29T09:39:04.951Z,3616.00
2022-11-29T09:40:05.199Z,3440.00
2022-11-29T09:41:05.461Z,3284.00
2022-11-29T09:42:05.740Z,3240.00
2022-11-29T09:43:06.006Z,3176.00
2022-11-29T09:44:06.260Z,3032.00
2022-11-29T09:45:06.530Z,3036.00
2022-11-29T09:46:06.879Z,3240.00
2022-11-29T09:47:07.072Z,3208.00
2022-11-29T09:48:07.328Z,3144.00
2022-11-29T09:49:07.582Z,3040.00
2022-11-29T09:50:07.852Z,3088.00
2022-11-29T09:51:08.122Z,3168.00
2022-11-29T09:52:08.432Z,3176.00
2022-11-29T09:53:08.711Z,3252.00
2022-11-29T09:54:08.964Z,3296.00
2022-11-29T09:55:09.234Z,3236.00
2022-11-29T09:56:09.503Z,3284.00
2022-11-29T09:57:11.019Z,3288.00
2022-11-29T09:58:10.083Z,3472.00
2022-11-29T09:59:10.344Z,3520.00
2022-11-29T10:00:10.594Z,3560.00
2022-11-29T10:01:10.902Z,3620.00
2022-11-29T10:02:11.191Z,3904.00
2022-11-29T10:03:11.443Z,4052.00
2022-11-29T10:04:11.715Z,4088.00
2022-11-29T10:05:11.975Z,3916.00
2022-11-29T10:06:12.336Z,3656.00
2022-11-29T10:07:12.513Z,3624.00
2022-11-29T10:08:12.777Z,3504.00
2022-11-29T10:09:13.037Z,3500.00
2022-11-29T10:10:13.312Z,3780.00
2022-11-29T10:11:13.570Z,3584.00
2022-11-29T10:12:13.896Z,3316.00
2022-11-29T10:13:22.085Z,3480.00
2022-11-29T10:14:14.702Z,3460.00
2022-11-29T10:15:15.035Z,3248.00
2022-11-29T10:16:15.224Z,3096.00
2022-11-29T10:17:15.443Z,3144.00
2022-11-29T10:18:15.747Z,2984.00
2022-11-29T10:19:16.062Z,2884.00
2022-11-29T10:20:16.461Z,2736.00
2022-11-29T10:21:16.716Z,2904.00
2022-11-29T10:22:16.998Z,3064.00
2022-11-29T10:23:17.169Z,2924.00
2022-11-29T10:24:17.434Z,2788.00
2022-11-29T10:25:17.749Z,2656.00
2022-11-29T10:26:18.002Z,2576.00
2022-11-29T10:27:18.717Z,2588.00
2022-11-29T10:28:18.515Z,2516.00
2022-11-29T10:29:18.758Z,2516.00
2022-11-29T10:30:18.993Z,2468.00
2022-11-29T10:31:19.486Z,2380.00
2022-11-29T10:32:19.600Z,2528.00
2022-11-29T10:33:19.820Z,2600.00
2022-11-29T10:34:20.157Z,2612.00
2022-11-29T10:35:20.366Z,2732.00
2022-11-29T10:36:20.735Z,2632.00
2022-11-29T10:37:20.969Z,2508.00
2022-11-29T10:38:36.560Z,2408.00
2022-11-29T10:39:22.574Z,2512.00
2022-11-29T10:40:21.736Z,2540.00
2022-11-29T10:41:21.960Z,2608.00
2022-11-29T10:42:22.263Z,2544.00
2022-11-29T10:43:22.502Z,2440.00
2022-11-29T10:44:22.752Z,2320.00
2022-11-29T10:45:23.029Z,2264.00
2022-11-29T10:46:23.349Z,2136.00
2022-11-29T10:47:23.499Z,2228.00
2022-11-29T10:48:23.721Z,2284.00
2022-11-29T10:49:24.042Z,2432.00
2022-11-29T10:50:24.385Z,2440.00
2022-11-29T10:51:24.581Z,2400.00
2022-11-29T10:52:24.961Z,2440.00
2022-11-29T10:53:25.183Z,2400.00
2022-11-29T10:54:25.491Z,2320.00
2022-11-29T10:55:25.792Z,2308.00
2022-11-29T10:56:26.127Z,2444.00
2022-11-29T10:57:26.442Z,2712.00
2022-11-29T10:58:28.726Z,2660.00
2022-11-29T10:59:27.193Z,2560.00
2022-11-29T11:00:27.378Z,2504.00
2022-11-29T11:01:27.686Z,2364.00
2022-11-29T11:02:28.057Z,2096.00
2022-11-29T11:03:28.159Z,2196.00
2022-11-29T11:04:28.400Z,2284.00
2022-11-29T11:05:28.758Z,2316.00
2022-11-29T11:06:29.023Z,2372.00
2022-11-29T11:07:29.376Z,2512.00
2022-11-29T11:08:29.624Z,2580.00
2022-11-29T11:09:29.833Z,2792.00
2022-11-29T11:10:30.244Z,2684.00
2022-11-29T11:11:30.512Z,2612.00
2022-11-29T11:12:30.754Z,2476.00
2022-11-29T11:13:30.932Z,2312.00
2022-11-29T11:14:31.342Z,2232.00
2022-11-29T11:15:36.715Z,2180.00
2022-11-29T11:16:37.098Z,2232.00
2022-11-29T11:17:33.048Z,2336.00
2022-11-29T11:18:32.299Z,2316.00
2022-11-29T11:19:32.649Z,2320.00
2022-11-29T11:20:32.962Z,2300.00
2022-11-29T11:21:35.324Z,2296.00
2022-11-29T11:22:33.547Z,2284.00
2022-11-29T11:23:36.361Z,2196.00
2022-11-29T11:24:34.174Z,2128.00
2022-11-29T11:25:34.473Z,2168.00
2022-11-29T11:26:34.698Z,2256.00
2022-11-29T11:27:34.897Z,2352.00
2022-11-29T11:28:35.252Z,2400.00
2022-11-29T11:29:35.470Z,2296.00
2022-11-29T11:30:35.797Z,2240.00
2022-11-29T11:31:36.095Z,2192.00
2022-11-29T11:32:36.418Z,2232.00
2022-11-29T11:33:36.730Z,2308.00
2022-11-29T11:34:37.060Z,2192.00
2022-11-29T11:35:37.421Z,2188.00
2022-11-29T11:36:37.600Z,2256.00
2022-11-29T11:37:37.903Z,2312.00
2022-11-29T11:38:38.231Z,2260.00
2022-11-29T11:39:38.554Z,2192.00
2022-11-29T11:40:38.940Z,2156.00
2022-11-29T11:41:39.164Z,2088.00
2022-11-29T11:42:39.451Z,2140.00
2022-11-29T11:43:39.691Z,2224.00
2022-11-29T11:44:58.034Z,2320.00
2022-11-29T11:45:41.319Z,2332.00
2022-11-29T11:46:40.649Z,2252.00
2022-11-29T11:47:40.824Z,2180.00
2022-11-29T11:48:41.185Z,2172.00
2022-11-29T11:49:41.584Z,2260.00
2022-11-29T11:50:41.635Z,2376.00
2022-11-29T11:51:43.269Z,2412.00
2022-11-29T11:52:50.579Z,2444.00
2022-11-29T11:53:42.645Z,2472.00
2022-11-29T11:54:43.128Z,2456.00
2022-11-29T11:55:43.134Z,2448.00
2022-11-29T11:56:43.361Z,2448.00
2022-11-29T11:58:09.924Z,2436.00
2022-11-29T11:58:45.140Z,2452.00
2022-11-29T12:06:08.990Z,1936.00
2022-11-29T12:07:07.999Z,1904.00
2022-11-29T12:08:08.678Z,2020.00
2022-11-29T12:09:40.896Z,2092.00
2022-11-29T12:10:07.700Z,2076.00
2022-11-29T12:11:08.006Z,2188.00
2022-11-29T12:12:08.293Z,2172.00
2022-11-29T12:13:08.832Z,2084.00
2022-11-29T12:14:08.930Z,2156.00
2022-11-29T12:15:09.167Z,2192.00
2022-11-29T12:16:09.609Z,2148.00
2022-11-29T12:17:09.768Z,2068.00
2022-11-29T12:18:10.064Z,1968.00
2022-11-29T12:19:10.758Z,1988.00
2022-11-29T12:20:10.561Z,2088.00
2022-11-29T12:21:10.859Z,2128.00
2022-11-29T12:22:11.210Z,2096.00
2022-11-29T12:23:11.549Z,2032.00
2022-11-29T12:24:11.845Z,2080.00
2022-11-29T12:25:12.180Z,2152.00
2022-11-29T12:26:19.243Z,2136.00
2022-11-29T12:27:13.733Z,2044.00
2022-11-29T12:28:17.177Z,1896.00
2022-11-29T12:29:14.172Z,1784.00
2022-11-29T12:30:13.401Z,1800.00
2022-11-29T12:31:13.797Z,1724.00
2022-11-29T12:32:14.081Z,1652.00
2022-11-29T12:33:14.328Z,1632.00
2022-11-29T12:34:20.969Z,1664.00
2022-11-29T12:35:18.746Z,1744.00
2022-11-29T12:36:15.134Z,1756.00
2022-11-29T12:37:15.386Z,1676.00
2022-11-29T12:38:15.599Z,1540.00
2022-11-29T12:39:15.926Z,1496.00
2022-11-29T12:40:16.234Z,1368.00
2022-11-29T12:41:16.620Z,1252.00
2022-11-29T12:42:16.833Z,1252.00
2022-11-29T12:43:17.088Z,1324.00
2022-11-29T12:44:17.297Z,1400.00
2022-11-29T12:45:17.605Z,1376.00
2022-11-29T12:46:18.049Z,1332.00
2022-11-29T12:48:19.601Z,1272.00
2022-11-29T12:49:18.934Z,1176.00
2022-11-29T12:50:19.138Z,1080.00
2022-11-29T12:51:19.511Z,1004.00
2022-11-29T12:52:19.833Z,984.00
2022-11-29T12:53:25.471Z,920.00
2022-11-29T12:54:21.503Z,824.00
2022-11-29T12:55:20.906Z,740.00